createdAt,value
2022-07-29T00:00:41.988Z,99810.22
2022-07-29T00:03:10.147Z,99713.72
2022-07-29T00:05:41.785Z,99873.41
2022-07-29T00:08:12.479Z,99869.13
2022-07-29T00:10:40.988Z,99870.38
2022-07-29T00:13:09.652Z,99868.84
2022-07-29T00:15:38.106Z,99869.44
2022-07-29T00:18:06.412Z,99806.09
2022-07-29T00:20:34.464Z,99834.97
2022-07-29T00:23:02.863Z,99809.22
2022-07-29T00:25:30.992Z,99813.28
2022-07-29T00:28:01.915Z,99857.66
2022-07-29T00:30:30.267Z,99846.19
2022-07-29T00:32:58.381Z,99854.56
2022-07-29T00:35:45.132Z,99857.84
2022-07-29T00:38:19.504Z,99833.06
2022-07-29T00:40:48.944Z,99822.19
2022-07-29T00:43:18.153Z,99856.75
2022-07-29T00:45:46.269Z,99854.94
2022-07-29T00:48:14.800Z,99849.63
2022-07-29T00:50:44.654Z,99849.91
2022-07-29T00:53:13.734Z,99831.81
2022-07-29T00:55:42.423Z,99848.22
2022-07-29T00:58:12.933Z,99850.06
2022-07-29T01:00:42.116Z,99851.88
2022-07-29T01:03:10.515Z,99845.31
2022-07-29T01:05:48.038Z,99835.50
2022-07-29T01:08:21.500Z,99839.97
2022-07-29T01:10:50.469Z,99785.66
2022-07-29T01:13:19.086Z,99799.00
2022-07-29T01:15:59.629Z,99860.50
2022-07-29T01:18:38.931Z,99802.66
2022-07-29T01:21:31.689Z,99861.66
2022-07-29T01:24:29.626Z,99855.91
2022-07-29T01:27:53.598Z,99845.25
2022-07-29T01:30:25.986Z,99848.06
2022-07-29T01:33:04.488Z,99811.50
2022-07-29T01:35:41.884Z,99834.88
2022-07-29T01:38:26.304Z,99844.03
2022-07-29T01:41:05.165Z,99845.00
2022-07-29T01:43:45.478Z,99822.72
2022-07-29T01:46:21.299Z,99835.88
2022-07-29T01:48:56.514Z,99839.41
2022-07-29T01:51:37.256Z,99841.91
2022-07-29T01:54:31.732Z,99847.69
2022-07-29T01:57:01.177Z,99850.19
2022-07-29T01:59:31.531Z,99805.63
2022-07-29T02:02:01.011Z,99805.09
2022-07-29T02:04:31.066Z,99846.69
2022-07-29T02:07:06.309Z,99842.81
2022-07-29T02:09:37.591Z,99844.88
2022-07-29T02:12:07.532Z,99798.50
2022-07-29T02:14:43.783Z,99840.81
2022-07-29T02:17:13.959Z,99838.31
2022-07-29T02:19:45.083Z,99799.06
2022-07-29T02:22:15.222Z,99822.63
2022-07-29T02:24:45.388Z,99837.75
2022-07-29T02:27:16.168Z,99839.44
2022-07-29T02:29:47.900Z,99840.97
2022-07-29T02:32:17.455Z,99794.06
2022-07-29T02:34:47.448Z,99825.97
2022-07-29T02:37:18.542Z,99843.38
2022-07-29T02:39:49.157Z,99844.34
2022-07-29T02:42:19.918Z,99811.41
2022-07-29T02:44:47.931Z,99845.88
2022-07-29T02:47:30.287Z,99852.88
2022-07-29T02:50:23.802Z,99850.06
2022-07-29T02:53:10.688Z,99821.50
2022-07-29T02:55:52.819Z,99857.63
2022-07-29T02:58:34.852Z,99854.56
2022-07-29T03:01:21.004Z,99808.59
2022-07-29T03:03:54.424Z,99842.25
2022-07-29T03:06:37.656Z,99845.75
2022-07-29T03:09:13.401Z,99868.16
2022-07-29T03:11:50.191Z,99850.63
2022-07-29T03:14:21.261Z,99857.50
2022-07-29T03:16:51.176Z,99842.38
2022-07-29T03:19:20.324Z,99818.69
2022-07-29T03:21:48.973Z,99848.13
2022-07-29T03:24:36.044Z,99836.91
2022-07-29T03:27:06.659Z,99846.53
2022-07-29T03:29:35.092Z,99843.72
2022-07-29T03:32:08.067Z,99807.72
2022-07-29T03:34:39.046Z,99855.91
2022-07-29T03:37:08.165Z,99851.13
2022-07-29T03:39:43.401Z,99845.22
2022-07-29T03:42:16.413Z,99846.16
2022-07-29T03:44:48.661Z,99841.28
2022-07-29T03:47:23.378Z,99847.41
2022-07-29T03:50:15.803Z,99846.38
2022-07-29T03:52:45.248Z,99841.72
2022-07-29T03:55:14.706Z,99839.56
2022-07-29T03:57:46.000Z,99843.28
2022-07-29T04:00:16.629Z,99833.16
2022-07-29T04:02:50.196Z,99841.38
2022-07-29T04:05:19.774Z,99762.22
2022-07-29T04:07:51.005Z,99838.97
2022-07-29T04:10:25.226Z,99840.84
2022-07-29T04:13:01.359Z,99837.81
2022-07-29T04:15:31.088Z,99827.72
2022-07-29T04:18:00.757Z,99786.91
2022-07-29T04:20:29.396Z,99830.97
2022-07-29T04:22:57.731Z,99822.78
2022-07-29T04:25:25.835Z,99802.81
2022-07-29T04:28:03.369Z,99832.59
2022-07-29T04:30:33.050Z,99819.94
2022-07-29T04:33:03.394Z,99784.38
2022-07-29T04:35:38.483Z,99827.13
2022-07-29T04:38:07.767Z,99773.75
2022-07-29T04:40:44.156Z,99784.00
2022-07-29T04:43:14.276Z,99816.31
2022-07-29T04:45:43.883Z,99814.09
2022-07-29T04:48:12.107Z,99825.75
2022-07-29T04:50:41.433Z,99783.59
2022-07-29T04:53:09.860Z,99818.44
2022-07-29T04:55:38.885Z,99821.22
2022-07-29T04:58:08.620Z,99826.28
2022-07-29T05:00:36.699Z,99830.69
2022-07-29T05:03:05.615Z,99786.59
2022-07-29T05:05:33.873Z,99832.22
2022-07-29T05:08:02.101Z,99839.84
2022-07-29T05:10:30.559Z,99822.31
2022-07-29T05:12:58.884Z,99840.91
2022-07-29T05:15:27.222Z,99838.44
2022-07-29T05:17:55.407Z,99832.41
2022-07-29T05:20:27.567Z,99837.13
2022-07-29T05:22:58.148Z,99834.13
2022-07-29T05:25:43.671Z,99825.84
2022-07-29T05:28:13.546Z,99833.78
2022-07-29T05:30:43.965Z,99835.69
2022-07-29T05:33:35.247Z,99825.19
2022-07-29T05:36:01.167Z,99801.28
2022-07-29T05:38:29.698Z,99848.06
2022-07-29T05:41:00.987Z,99848.63
2022-07-29T05:43:29.826Z,99802.56
2022-07-29T05:45:58.111Z,99842.84
2022-07-29T05:48:26.539Z,99820.00
2022-07-29T05:50:55.942Z,99837.31
2022-07-29T05:53:24.326Z,99840.91
2022-07-29T05:55:53.347Z,99836.09
2022-07-29T05:58:21.720Z,99808.38
2022-07-29T06:00:49.760Z,99842.75
2022-07-29T06:03:17.832Z,99812.09
2022-07-29T06:05:46.076Z,99854.81
2022-07-29T06:08:13.988Z,99851.88
2022-07-29T06:10:43.409Z,99853.06
2022-07-29T06:13:11.589Z,99814.03
2022-07-29T06:15:40.146Z,99848.69
2022-07-29T06:18:10.500Z,99802.84
2022-07-29T06:20:39.491Z,99846.44
2022-07-29T06:23:07.683Z,99845.19
2022-07-29T06:25:38.865Z,99821.78
2022-07-29T06:28:07.188Z,99799.78
2022-07-29T06:30:35.179Z,99846.84
2022-07-29T06:33:04.147Z,99837.03
2022-07-29T06:35:39.329Z,99819.06
2022-07-29T06:38:29.989Z,99837.09
2022-07-29T06:41:11.344Z,99826.28
2022-07-29T06:43:50.178Z,99835.56
2022-07-29T06:46:21.081Z,99833.44
2022-07-29T06:48:50.717Z,99847.13
2022-07-29T06:51:21.786Z,99826.03
2022-07-29T06:53:59.376Z,99833.75
2022-07-29T06:56:39.925Z,99825.28
2022-07-29T06:59:10.937Z,99827.19
2022-07-29T07:01:41.975Z,99804.56
2022-07-29T07:04:10.571Z,99829.22
2022-07-29T07:06:38.997Z,99828.09
2022-07-29T07:09:07.346Z,99828.22
2022-07-29T07:11:36.043Z,99834.84
2022-07-29T07:14:04.705Z,99835.19
2022-07-29T07:16:33.845Z,99825.59
2022-07-29T07:19:02.640Z,99789.69
2022-07-29T07:21:31.486Z,99833.06
2022-07-29T07:24:01.045Z,99825.13
2022-07-29T07:26:29.568Z,99831.13
2022-07-29T07:28:57.943Z,99812.81
2022-07-29T07:31:26.036Z,99825.94
2022-07-29T07:33:54.719Z,99802.88
2022-07-29T07:36:23.583Z,99829.75
2022-07-29T07:38:51.786Z,99826.53
2022-07-29T07:41:20.408Z,99836.53
2022-07-29T07:43:48.693Z,99819.38
2022-07-29T07:46:17.370Z,99825.41
2022-07-29T07:48:45.532Z,99840.19
2022-07-29T07:51:13.802Z,99788.16
2022-07-29T07:53:42.360Z,99829.09
2022-07-29T07:56:12.086Z,99821.88
2022-07-29T07:58:41.059Z,99826.03
2022-07-29T08:01:11.187Z,99698.16
2022-07-29T08:03:40.065Z,99792.00
2022-07-29T08:06:08.239Z,99821.53
2022-07-29T08:08:36.574Z,99825.28
2022-07-29T08:11:09.060Z,99833.91
2022-07-29T08:13:39.226Z,99823.06
2022-07-29T08:16:16.286Z,99794.50
2022-07-29T08:18:47.139Z,99801.84
2022-07-29T08:21:17.310Z,99841.41
2022-07-29T08:24:15.994Z,99787.16
2022-07-29T08:26:45.325Z,99827.75
2022-07-29T08:29:18.338Z,99838.66
2022-07-29T08:31:48.179Z,99838.94
2022-07-29T08:34:16.236Z,99833.44
2022-07-29T08:36:44.310Z,99818.78
2022-07-29T08:39:18.548Z,99819.91
2022-07-29T08:41:57.485Z,99813.31
2022-07-29T08:44:30.477Z,99826.41
2022-07-29T08:46:58.892Z,99794.94
2022-07-29T08:49:27.233Z,99797.16
2022-07-29T08:51:57.284Z,99821.94
2022-07-29T08:54:26.015Z,99831.16
2022-07-29T08:56:54.949Z,99826.41
2022-07-29T08:59:28.173Z,99822.34
2022-07-29T09:02:01.416Z,99824.13
2022-07-29T09:04:35.394Z,99773.78
2022-07-29T09:07:07.059Z,99783.69
2022-07-29T09:09:35.285Z,99796.72
2022-07-29T09:12:05.205Z,99732.56
2022-07-29T09:14:33.234Z,99781.25
2022-07-29T09:17:02.128Z,99804.72
2022-07-29T09:19:37.225Z,99789.69
2022-07-29T09:22:08.058Z,99801.41
2022-07-29T09:24:46.361Z,99809.91
2022-07-29T09:27:27.791Z,99756.19
2022-07-29T09:30:15.459Z,99788.72
2022-07-29T09:32:59.775Z,99767.53
2022-07-29T09:35:28.731Z,99786.16
2022-07-29T09:37:57.613Z,99791.56
2022-07-29T09:40:29.173Z,99799.91
2022-07-29T09:42:58.433Z,99785.63
2022-07-29T09:45:33.308Z,99798.31
2022-07-29T09:48:20.845Z,99794.69
2022-07-29T09:50:52.006Z,99744.88
2022-07-29T09:53:39.091Z,99781.56
2022-07-29T09:56:07.472Z,99779.19
2022-07-29T09:58:36.461Z,99779.84
2022-07-29T10:01:05.360Z,99773.22
2022-07-29T10:03:33.519Z,99738.78
2022-07-29T10:06:10.768Z,99767.03
2022-07-29T10:08:39.339Z,99737.31
2022-07-29T10:11:20.055Z,99770.03
2022-07-29T10:13:50.125Z,99764.53
2022-07-29T10:16:19.118Z,99762.44
2022-07-29T10:18:48.290Z,99762.53
2022-07-29T10:21:34.917Z,99759.31
2022-07-29T10:24:07.481Z,99748.41
2022-07-29T10:26:45.823Z,99757.97
2022-07-29T10:29:14.078Z,99766.31
2022-07-29T10:31:54.268Z,99756.38
2022-07-29T10:35:13.676Z,99755.81
2022-07-29T10:38:24.797Z,99739.56
2022-07-29T10:41:31.988Z,99707.69
2022-07-29T10:44:17.096Z,99699.97
2022-07-29T10:46:48.036Z,99755.66
2022-07-29T10:49:25.218Z,99749.03
2022-07-29T10:51:59.895Z,99751.69
2022-07-29T10:54:38.259Z,99764.88
2022-07-29T10:57:15.796Z,99757.69
2022-07-29T10:59:46.607Z,99753.03
2022-07-29T11:02:41.763Z,99755.59
2022-07-29T11:05:12.983Z,99767.50
2022-07-29T11:08:21.110Z,99750.50
2022-07-29T11:11:22.145Z,99757.00
2022-07-29T11:13:56.063Z,99750.94
2022-07-29T11:16:25.660Z,99742.38
2022-07-29T11:19:13.207Z,99761.28
2022-07-29T11:21:53.448Z,99743.84
2022-07-29T11:24:30.378Z,99738.19
2022-07-29T11:27:18.139Z,99736.63
2022-07-29T11:30:08.045Z,99713.78
2022-07-29T11:32:48.954Z,99737.72
2022-07-29T11:35:36.928Z,99732.28
2022-07-29T11:38:28.812Z,99740.38
2022-07-29T11:41:19.042Z,99692.00
2022-07-29T11:43:58.550Z,99704.28
2022-07-29T11:46:50.864Z,99721.66
2022-07-29T11:52:12.312Z,99731.53
2022-07-29T11:54:58.126Z,99722.47
2022-07-29T11:57:37.259Z,99733.28
2022-07-29T12:00:12.620Z,99679.78
2022-07-29T12:02:48.600Z,99715.28
2022-07-29T12:05:35.990Z,99716.25
2022-07-29T12:08:20.994Z,99718.13
2022-07-29T12:10:53.159Z,99712.81
2022-07-29T12:13:22.944Z,99717.81
2022-07-29T12:16:06.950Z,99713.00
2022-07-29T12:18:35.409Z,99721.19
2022-07-29T12:21:05.144Z,99715.56
2022-07-29T12:23:34.965Z,99712.09
2022-07-29T12:26:11.003Z,99663.38
2022-07-29T12:28:50.335Z,99702.81
2022-07-29T12:31:42.098Z,99700.13
2022-07-29T12:34:07.225Z,99695.84
2022-07-29T12:36:35.501Z,99646.88
2022-07-29T12:39:05.343Z,99693.25
2022-07-29T12:41:33.482Z,99694.66
2022-07-29T12:44:01.597Z,99696.81
2022-07-29T12:46:29.654Z,99692.50
2022-07-29T12:48:58.458Z,99677.31
2022-07-29T12:51:39.507Z,99687.59
2022-07-29T12:54:16.892Z,99667.16
2022-07-29T12:56:46.255Z,99674.06
2022-07-29T12:59:20.706Z,99571.06
2022-07-29T13:01:52.239Z,99668.34
2022-07-29T13:04:34.528Z,99668.81
2022-07-29T13:08:29.490Z,99658.19
2022-07-29T13:10:11.095Z,99681.16
2022-07-29T13:12:40.676Z,99655.44
2022-07-29T13:15:17.113Z,99630.91
2022-07-29T13:17:45.311Z,99618.81
2022-07-29T13:20:15.984Z,99655.69
2022-07-29T13:22:49.905Z,99638.41
2022-07-29T13:25:34.475Z,99645.22
2022-07-29T13:28:03.453Z,99645.97
2022-07-29T13:30:31.503Z,99573.66
2022-07-29T13:32:59.554Z,99638.06
2022-07-29T13:35:30.887Z,99636.47
2022-07-29T13:37:59.197Z,99643.81
2022-07-29T13:40:27.312Z,99630.25
2022-07-29T13:42:55.470Z,99642.66
2022-07-29T13:45:24.077Z,99641.44
2022-07-29T13:47:52.109Z,99642.09
2022-07-29T13:50:20.230Z,99646.63
2022-07-29T13:52:49.580Z,99642.28
2022-07-29T13:55:17.592Z,99637.69
2022-07-29T13:57:46.030Z,99629.00
2022-07-29T14:00:14.879Z,99625.59
2022-07-29T14:02:45.770Z,99625.41
2022-07-29T14:05:13.874Z,99623.41
2022-07-29T14:07:41.941Z,99610.50
2022-07-29T14:10:10.740Z,99580.69
2022-07-29T14:12:39.854Z,99626.38
2022-07-29T14:15:08.433Z,99590.63
2022-07-29T14:17:36.610Z,99626.78
2022-07-29T14:20:06.141Z,99552.66
2022-07-29T14:22:37.811Z,99623.56
2022-07-29T14:25:14.591Z,99605.97
2022-07-29T14:27:44.926Z,99581.81
2022-07-29T14:30:13.700Z,99618.31
2022-07-29T14:32:42.802Z,99611.19
2022-07-29T14:35:10.982Z,99606.75
2022-07-29T14:37:40.833Z,99607.22
2022-07-29T14:40:11.596Z,99559.13
2022-07-29T14:42:40.476Z,99598.44
2022-07-29T14:45:10.472Z,99599.53
2022-07-29T14:47:39.708Z,99596.84
2022-07-29T14:50:08.807Z,99583.69
2022-07-29T14:52:37.153Z,99580.41
2022-07-29T14:55:16.426Z,99573.28
2022-07-29T14:57:49.376Z,99568.50
2022-07-29T15:00:18.227Z,99558.06
2022-07-29T15:03:01.347Z,99565.78
2022-07-29T15:05:32.368Z,99569.72
2022-07-29T15:08:01.295Z,99581.22
2022-07-29T15:10:29.681Z,99580.41
2022-07-29T15:12:58.881Z,99537.03
2022-07-29T15:15:27.274Z,99546.34
2022-07-29T15:17:55.521Z,99570.50
2022-07-29T15:20:26.452Z,99528.41
2022-07-29T15:22:56.600Z,99541.91
2022-07-29T15:25:26.498Z,99581.16
2022-07-29T15:28:01.206Z,99576.41
2022-07-29T15:30:33.133Z,99572.53
2022-07-29T15:33:04.361Z,99574.31
2022-07-29T15:35:33.097Z,99569.88
2022-07-29T15:38:01.212Z,99566.75
2022-07-29T15:40:29.788Z,99563.91
2022-07-29T15:42:58.585Z,99561.06
2022-07-29T15:45:26.799Z,99555.94
2022-07-29T15:48:00.506Z,99559.69
2022-07-29T15:50:28.597Z,99544.69
2022-07-29T15:52:56.672Z,99519.41
2022-07-29T15:55:24.915Z,99548.00
2022-07-29T15:57:55.177Z,99549.53
2022-07-29T16:00:26.675Z,99545.66
2022-07-29T16:02:54.612Z,99485.97
2022-07-29T16:05:23.405Z,99464.22
2022-07-29T16:07:51.803Z,99532.78
2022-07-29T16:10:19.956Z,99530.63
2022-07-29T16:12:48.040Z,99451.59
2022-07-29T16:15:16.685Z,99530.78
2022-07-29T16:17:45.173Z,99494.34
2022-07-29T16:20:13.884Z,99492.97
2022-07-29T16:22:45.264Z,99537.28
2022-07-29T16:25:13.386Z,99543.59
2022-07-29T16:27:43.701Z,99519.72
2022-07-29T16:30:12.652Z,99538.28
2022-07-29T16:32:40.675Z,99537.28
2022-07-29T16:35:10.087Z,99543.59
2022-07-29T16:37:39.384Z,99495.84
2022-07-29T16:40:11.752Z,99539.47
2022-07-29T16:42:48.017Z,99530.91
2022-07-29T16:45:18.064Z,99533.44
2022-07-29T16:47:49.952Z,99506.78
2022-07-29T16:50:18.717Z,99547.19
2022-07-29T16:52:46.762Z,99549.94
2022-07-29T16:55:14.971Z,99532.34
2022-07-29T16:57:43.993Z,99505.09
2022-07-29T17:00:13.357Z,99544.44
2022-07-29T17:02:43.671Z,99550.47
2022-07-29T17:05:12.880Z,99545.25
2022-07-29T17:07:42.921Z,99546.63
2022-07-29T17:10:11.569Z,99549.94
2022-07-29T17:12:43.958Z,99512.53
2022-07-29T17:15:13.670Z,99509.28
2022-07-29T17:17:55.024Z,99510.94
2022-07-29T17:20:27.020Z,99521.66
2022-07-29T17:22:55.655Z,99551.19
2022-07-29T17:25:24.652Z,99554.81
2022-07-29T17:27:54.461Z,99562.56
2022-07-29T17:30:26.186Z,99565.19
2022-07-29T17:32:55.147Z,99560.84
2022-07-29T17:35:42.059Z,99567.19
2022-07-29T17:38:10.186Z,99561.94
2022-07-29T17:40:38.518Z,99523.50
2022-07-29T17:43:09.362Z,99459.81
2022-07-29T17:45:49.044Z,99572.97
2022-07-29T17:48:20.061Z,99561.97
2022-07-29T17:50:49.638Z,99570.03
2022-07-29T17:53:18.117Z,99534.28
2022-07-29T17:55:47.760Z,99530.59
2022-07-29T17:58:17.033Z,99514.66
2022-07-29T18:00:45.872Z,99554.03
2022-07-29T18:03:14.493Z,99507.84
2022-07-29T18:05:45.787Z,99515.63
2022-07-29T18:08:13.969Z,99539.09
2022-07-29T18:10:42.222Z,99547.13
2022-07-29T18:13:13.120Z,99570.38
2022-07-29T18:15:43.346Z,99570.41
2022-07-29T18:18:15.767Z,99524.13
2022-07-29T18:20:44.188Z,99569.88
2022-07-29T18:23:12.463Z,99525.47
2022-07-29T18:25:40.925Z,99567.47
2022-07-29T18:28:09.489Z,99580.13
2022-07-29T18:30:38.152Z,99584.75
2022-07-29T18:33:24.317Z,99586.56
2022-07-29T18:36:06.097Z,99539.53
2022-07-29T18:38:41.976Z,99537.06
2022-07-29T18:41:10.276Z,99551.34
2022-07-29T18:43:38.256Z,99603.53
2022-07-29T18:46:07.113Z,99596.38
2022-07-29T18:48:35.251Z,99565.22
2022-07-29T18:51:03.477Z,99602.03
2022-07-29T18:53:38.082Z,99618.53
2022-07-29T18:56:06.168Z,99584.06
2022-07-29T18:58:34.300Z,99575.81
2022-07-29T19:01:02.749Z,99576.66
2022-07-29T19:03:30.866Z,99569.03
2022-07-29T19:05:59.149Z,99623.06
2022-07-29T19:08:27.724Z,99621.66
2022-07-29T19:10:59.668Z,99622.88
2022-07-29T19:13:27.962Z,99620.22
2022-07-29T19:15:56.338Z,99615.66
2022-07-29T19:18:24.902Z,99570.16
2022-07-29T19:20:54.072Z,99569.75
2022-07-29T19:23:22.185Z,99569.97
2022-07-29T19:25:53.882Z,99578.91
2022-07-29T19:28:23.568Z,99605.56
2022-07-29T19:30:53.767Z,99613.88
2022-07-29T19:33:22.102Z,99612.41
2022-07-29T19:35:54.749Z,99603.22
2022-07-29T19:38:24.006Z,99594.91
2022-07-29T19:40:52.603Z,99609.31
2022-07-29T19:43:50.695Z,99605.13
2022-07-29T19:46:10.520Z,99604.69
2022-07-29T19:48:39.067Z,99595.97
2022-07-29T19:51:07.134Z,99544.59
2022-07-29T19:53:35.360Z,99534.88
2022-07-29T19:56:03.631Z,99588.06
2022-07-29T19:58:32.262Z,99590.19
2022-07-29T20:01:01.047Z,99546.34
2022-07-29T20:03:29.695Z,99590.81
2022-07-29T20:05:58.347Z,99573.13
2022-07-29T20:08:26.769Z,99547.56
2022-07-29T20:10:56.074Z,99568.19
2022-07-29T20:13:24.401Z,99592.72
2022-07-29T20:15:52.660Z,99592.09
2022-07-29T20:18:20.933Z,99586.25
2022-07-29T20:20:49.935Z,99573.84
2022-07-29T20:23:19.580Z,99565.72
2022-07-29T20:25:47.701Z,99492.31
2022-07-29T20:28:15.967Z,99563.00
2022-07-29T20:30:44.495Z,99514.16
2022-07-29T20:33:15.684Z,99523.91
2022-07-29T20:35:43.894Z,99491.09
2022-07-29T20:38:15.132Z,99512.47
2022-07-29T20:40:47.028Z,99557.81
2022-07-29T20:43:16.052Z,99513.31
2022-07-29T20:45:44.344Z,99552.00
2022-07-29T20:48:13.678Z,99509.59
2022-07-29T20:50:43.081Z,99523.50
2022-07-29T20:53:11.726Z,99568.25
2022-07-29T20:55:39.761Z,99497.97
2022-07-29T20:58:08.103Z,99472.19
2022-07-29T21:00:36.403Z,99509.16
2022-07-29T21:03:04.860Z,99475.91
2022-07-29T21:05:33.167Z,99564.88
2022-07-29T21:08:01.354Z,99554.69
2022-07-29T21:10:29.663Z,99570.06
2022-07-29T21:12:57.985Z,99560.72
2022-07-29T21:15:27.730Z,99573.19
2022-07-29T21:18:06.569Z,99573.59
2022-07-29T21:20:34.933Z,99563.63
2022-07-29T21:23:03.467Z,99562.78
2022-07-29T21:25:31.538Z,99568.38
2022-07-29T21:28:18.210Z,99558.84
2022-07-29T21:30:46.389Z,99564.03
2022-07-29T21:33:16.296Z,99519.47
2022-07-29T21:36:10.206Z,99566.31
2022-07-29T21:38:34.208Z,99537.81
2022-07-29T21:41:02.427Z,99572.31
2022-07-29T21:43:30.714Z,99561.91
2022-07-29T21:46:01.036Z,99543.59
2022-07-29T21:48:29.650Z,99553.97
2022-07-29T21:50:57.840Z,99498.84
2022-07-29T21:53:28.052Z,99548.53
2022-07-29T21:55:56.142Z,99523.72
2022-07-29T21:58:24.896Z,99553.28
2022-07-29T22:00:54.123Z,99562.44
2022-07-29T22:03:22.207Z,99572.00
2022-07-29T22:05:50.348Z,99551.78
2022-07-29T22:08:21.574Z,99520.59
2022-07-29T22:10:49.539Z,99567.19
2022-07-29T22:13:18.087Z,99524.97
2022-07-29T22:15:47.241Z,99574.03
2022-07-29T22:18:21.077Z,99565.91
2022-07-29T22:20:50.547Z,99516.00
2022-07-29T22:23:25.428Z,99554.50
2022-07-29T22:25:54.039Z,99564.84
2022-07-29T22:28:22.014Z,99565.94
2022-07-29T22:30:50.174Z,99580.06
2022-07-29T22:33:18.415Z,99519.94
2022-07-29T22:35:48.391Z,99526.63
2022-07-29T22:38:18.305Z,99561.16
2022-07-29T22:40:48.697Z,99516.22
2022-07-29T22:43:18.767Z,99563.66
2022-07-29T22:45:47.042Z,99557.84
2022-07-29T22:48:15.656Z,99562.22
2022-07-29T22:50:43.831Z,99552.84
2022-07-29T22:53:11.842Z,99537.84
2022-07-29T22:55:40.168Z,99552.00
2022-07-29T22:58:08.210Z,99550.50
2022-07-29T23:00:36.304Z,99516.81
2022-07-29T23:03:04.755Z,99534.94
2022-07-29T23:05:32.926Z,99531.22
2022-07-29T23:08:00.964Z,99527.28
2022-07-29T23:10:30.688Z,99487.75
2022-07-29T23:12:58.788Z,99523.13
2022-07-29T23:15:26.823Z,99526.84
2022-07-29T23:17:55.218Z,99521.66
2022-07-29T23:20:23.251Z,99531.22
2022-07-29T23:22:51.545Z,99529.53
2022-07-29T23:25:20.010Z,99533.50
2022-07-29T23:27:47.895Z,99520.00
2022-07-29T23:30:16.043Z,99527.69
2022-07-29T23:32:44.211Z,99524.34
2022-07-29T23:35:12.210Z,99472.75
2022-07-29T23:37:40.260Z,99530.13
2022-07-29T23:40:13.998Z,99536.13
2022-07-29T23:42:43.886Z,99447.22
2022-07-29T23:45:13.943Z,99536.06
2022-07-29T23:47:43.288Z,99529.78
2022-07-29T23:50:12.793Z,99504.03
2022-07-29T23:52:42.627Z,99523.97
2022-07-29T23:55:37.667Z,99519.34
2022-07-29T23:58:00.572Z,99502.97
